Time;durP1;ratioP1;P1;durP2;ratioP2;P2;SDS_P1;SDS_P2;PMS_P1;PMS_P2;Temp;Humidity;BMP_temperature;BMP_pressure;BME280_temperature;BME280_humidity;BME280_pressure;Samples;Min_cycle;Max_cycle;Signal;HPM_P1;HPM_P2
2022/07/16 00:02:14;;;;;;;5.93;2.85;;;;;;;17.58;99.26;102271.00;7372482;19;20038;-77
2022/07/16 00:04:44;;;;;;;9.75;3.20;;;;;;;17.52;100.00;102268.31;7376832;19;20487;-76
2022/07/16 00:07:14;;;;;;;6.10;3.03;;;;;;;17.46;100.00;102266.50;7374869;19;20086;-78
2022/07/16 00:09:44;;;;;;;7.70;3.58;;;;;;;17.45;100.00;102269.16;7375341;19;20017;-77
2022/07/16 00:12:14;;;;;;;6.78;3.20;;;;;;;17.39;100.00;102272.63;7375254;19;20310;-78
2022/07/16 00:14:47;;;;;;;5.97;3.20;;;;;;;17.31;100.00;102263.75;7376158;19;20374;-77
2022/07/16 00:17:17;;;;;;;6.45;3.25;;;;;;;17.33;100.00;102267.28;7367133;19;20048;-77
2022/07/16 00:19:44;;;;;;;7.47;3.20;;;;;;;17.28;100.00;102267.25;7375543;19;20106;-77
2022/07/16 00:22:14;;;;;;;7.78;3.35;;;;;;;17.25;100.00;102272.53;7372902;19;20014;-77
2022/07/16 00:24:44;;;;;;;8.15;3.45;;;;;;;17.22;100.00;102271.63;7377006;19;20502;-76
2022/07/16 00:27:14;;;;;;;5.68;3.03;;;;;;;17.18;100.00;102264.50;7373671;19;20018;-77
2022/07/16 00:29:46;;;;;;;7.68;3.65;;;;;;;17.18;100.00;102269.81;7377047;19;20491;-77
2022/07/16 00:32:16;;;;;;;7.83;3.87;;;;;;;17.14;100.00;102268.91;7377609;19;20042;-76
2022/07/16 00:34:46;;;;;;;7.95;3.67;;;;;;;17.09;100.00;102265.31;7371906;19;20035;-76
2022/07/16 00:37:16;;;;;;;5.95;3.70;;;;;;;17.03;100.00;102269.66;7377568;19;20118;-76
2022/07/16 00:39:45;;;;;;;8.32;4.03;;;;;;;16.96;100.00;102260.78;7378769;19;20011;-77
2022/07/16 00:42:16;;;;;;;7.82;3.70;;;;;;;16.99;100.00;102266.09;7375047;19;20026;-77
2022/07/16 00:44:48;;;;;;;7.72;4.35;;;;;;;16.97;100.00;102260.78;7372284;19;20428;-76
2022/07/16 00:47:18;;;;;;;7.40;4.63;;;;;;;16.94;100.00;102263.41;7375689;19;20323;-77
2022/07/16 00:49:57;;;;;;;8.73;4.40;;;;;;;16.95;100.00;102259.00;7373500;19;20498;-78
2022/07/16 00:52:27;;;;;;;8.55;4.65;;;;;;;16.91;100.00;102265.13;7375464;19;20045;-77
2022/07/16 00:54:57;;;;;;;9.25;4.57;;;;;;;16.89;100.00;102261.59;7376780;19;20018;-77
2022/07/16 00:57:27;;;;;;;12.00;4.72;;;;;;;16.89;100.00;102266.88;7377336;19;20525;-78
2022/07/16 00:59:59;;;;;;;11.10;4.75;;;;;;;16.89;100.00;102262.47;7375483;19;20011;-77
2022/07/16 01:02:29;;;;;;;13.38;5.50;;;;;;;16.86;100.00;102266.84;7374706;19;20077;-78
2022/07/16 01:04:59;;;;;;;9.70;5.32;;;;;;;16.84;100.00;102263.31;7377919;19;20022;-77
2022/07/16 01:07:29;;;;;;;9.35;5.07;;;;;;;16.85;100.00;102255.38;7376641;19;20022;-76
2022/07/16 01:10:00;;;;;;;8.93;5.43;;;;;;;16.85;100.00;102259.78;7376037;19;20003;-76
2022/07/16 01:12:30;;;;;;;13.50;5.35;;;;;;;16.82;100.00;102260.63;7376168;19;20078;-76
2022/07/16 01:15:04;;;;;;;11.80;5.50;;;;;;;16.84;100.00;102263.31;7377110;19;20047;-76
2022/07/16 01:17:34;;;;;;;11.35;5.35;;;;;;;16.85;100.00;102263.31;7375952;19;20036;-77
2022/07/16 01:20:05;;;;;;;11.13;5.20;;;;;;;16.81;100.00;102257.97;7376171;19;20109;-76
2022/07/16 01:22:35;;;;;;;13.40;5.25;;;;;;;16.81;100.00;102260.63;7373658;19;20015;-77
2022/07/16 01:25:11;;;;;;;10.43;5.15;;;;;;;16.85;100.00;102258.00;7378071;19;20015;-77
2022/07/16 01:27:41;;;;;;;12.18;5.22;;;;;;;16.88;100.00;102259.81;7377933;19;20021;-76
2022/07/16 01:30:12;;;;;;;12.75;5.07;;;;;;;16.87;100.00;102258.91;7378932;19;20010;-77
2022/07/16 01:32:42;;;;;;;11.60;4.90;;;;;;;16.89;100.00;102264.22;7374221;19;20215;-77
2022/07/16 01:35:13;;;;;;;10.85;4.80;;;;;;;16.92;100.00;102266.91;7377573;19;20255;-77
2022/07/16 01:37:42;;;;;;;12.77;5.88;;;;;;;16.92;100.00;102262.50;7373548;19;20015;-76
2022/07/16 01:40:15;;;;;;;11.13;5.20;;;;;;;16.93;100.00;102263.38;7376451;19;20031;-77
2022/07/16 01:42:46;;;;;;;9.93;4.93;;;;;;;16.92;100.00;102259.84;7371444;19;20392;-76
2022/07/16 01:45:16;;;;;;;11.77;5.20;;;;;;;16.95;100.00;102266.94;7376065;19;20017;-77
2022/07/16 01:47:46;;;;;;;8.30;4.13;;;;;;;16.99;100.00;102266.09;7373650;19;20020;-76
2022/07/16 01:50:16;;;;;;;10.15;4.75;;;;;;;16.98;100.00;102269.63;7376375;19;20019;-77
2022/07/16 01:52:46;;;;;;;8.85;4.68;;;;;;;16.98;100.00;102273.16;7371270;19;20420;-76
2022/07/16 01:55:18;;;;;;;11.98;5.40;;;;;;;16.97;100.00;102268.72;7375309;19;20019;-76
2022/07/16 01:57:48;;;;;;;14.57;5.65;;;;;;;17.02;100.00;102273.19;7374189;19;20015;-77
2022/07/16 02:00:17;;;;;;;13.73;6.13;;;;;;;17.02;100.00;102274.09;7379943;19;20010;-77
2022/07/16 02:02:47;;;;;;;13.90;5.93;;;;;;;17.00;100.00;102270.53;7376685;19;20018;-77
2022/07/16 02:05:17;;;;;;;12.38;4.65;;;;;;;17.04;100.00;102269.69;7383844;19;20119;-76
2022/07/16 02:07:47;;;;;;;10.07;4.60;;;;;;;17.06;100.00;102278.53;7382268;19;20019;-76
2022/07/16 02:10:19;;;;;;;9.00;4.68;;;;;;;17.03;100.00;102281.16;7381978;19;20014;-77
2022/07/16 02:12:50;;;;;;;11.85;4.50;;;;;;;17.00;100.00;102278.47;7382135;19;20039;-77
2022/07/16 02:15:20;;;;;;;8.80;4.25;;;;;;;16.95;100.00;102280.19;7381405;19;20025;-78
2022/07/16 02:17:50;;;;;;;10.25;4.43;;;;;;;16.99;100.00;102280.25;7380792;19;20021;-77
2022/07/16 02:20:22;;;;;;;11.55;4.82;;;;;;;16.92;100.00;102280.16;7383689;19;20640;-77
2022/07/16 02:22:52;;;;;;;10.35;4.80;;;;;;;16.85;100.00;102278.31;7382891;19;20028;-78
2022/07/16 02:25:26;;;;;;;10.55;4.72;;;;;;;16.82;100.00;102287.13;7384431;19;20014;-78
2022/07/16 02:28:12;;;;;;;10.50;4.93;;;;;;;16.76;100.00;102289.72;7378854;19;20044;-78
2022/07/16 02:30:45;;;;;;;7.75;4.18;;;;;;;16.69;100.00;102290.53;7381353;19;20523;-76
2022/07/16 02:33:19;;;;;;;9.20;4.15;;;;;;;16.61;100.00;102295.72;7382339;19;20014;-77
2022/07/16 02:35:50;;;;;;;10.15;4.25;;;;;;;16.53;100.00;102294.75;7380407;19;20014;-76
2022/07/16 02:38:20;;;;;;;8.43;4.13;;;;;;;16.53;100.00;102294.75;7383392;19;20487;-77
2022/07/16 02:40:52;;;;;;;10.20;4.68;;;;;;;16.47;100.00;102296.44;7379110;19;20541;-78
2022/07/16 02:43:26;;;;;;;10.65;3.63;;;;;;;16.40;100.00;102298.13;7379798;19;20010;-76
2022/07/16 02:45:56;;;;;;;8.52;4.15;;;;;;;16.38;100.00;102302.50;7382066;19;20018;-77
2022/07/16 02:48:25;;;;;;;7.07;3.70;;;;;;;16.35;100.00;102310.41;7377682;19;20060;-77
2022/07/16 02:50:57;;;;;;;7.10;3.25;;;;;;;16.27;100.00;102307.66;7380677;19;20687;-77
2022/07/16 02:53:27;;;;;;;6.85;3.25;;;;;;;16.28;100.00;102317.38;7379995;19;20025;-79
2022/07/16 02:56:00;;;;;;;10.65;3.47;;;;;;;16.22;100.00;102312.00;7382196;19;20063;-77
2022/07/16 02:58:30;;;;;;;8.73;3.55;;;;;;;16.15;100.00;102322.50;7382618;19;20052;-78
2022/07/16 03:00:59;;;;;;;9.00;3.22;;;;;;;16.15;100.00;102325.13;7381776;19;20014;-78
2022/07/16 03:03:29;;;;;;;9.77;3.10;;;;;;;16.10;100.00;102324.19;7380399;19;20040;-77
2022/07/16 03:05:59;;;;;;;7.45;2.80;;;;;;;16.07;100.00;102324.13;7385211;19;20007;-76
2022/07/16 03:08:29;;;;;;;6.75;4.55;;;;;;;16.02;100.00;102329.34;7379099;19;20011;-77
2022/07/16 03:11:06;;;;;;;8.70;2.90;;;;;;;15.99;100.00;102327.56;7381728;19;20228;-79
2022/07/16 03:13:36;;;;;;;5.28;2.50;;;;;;;15.99;100.00;102335.50;7381928;19;20017;-79
2022/07/16 03:16:06;;;;;;;5.72;2.70;;;;;;;16.00;100.00;102325.81;7382785;19;20051;-77
2022/07/16 03:18:36;;;;;;;5.40;2.88;;;;;;;15.96;100.00;102329.28;7379962;19;20028;-78
2022/07/16 03:21:06;;;;;;;7.78;2.67;;;;;;;15.94;100.00;102337.19;7381214;19;20047;-77
2022/07/16 03:23:36;;;;;;;5.18;2.47;;;;;;;15.95;100.00;102333.69;7379019;19;20022;-78
2022/07/16 03:26:09;;;;;;;6.75;2.70;;;;;;;15.91;100.00;102336.25;7378630;19;20068;-78
2022/07/16 03:28:39;;;;;;;6.00;2.93;;;;;;;15.89;100.00;102340.63;7380616;19;20027;-78
2022/07/16 03:31:09;;;;;;;10.02;2.70;;;;;;;15.85;100.00;102344.09;7378638;19;20308;-76
2022/07/16 03:33:42;;;;;;;8.10;3.03;;;;;;;15.81;100.00;102345.81;7381295;19;20014;-77
2022/07/16 03:36:12;;;;;;;6.53;2.80;;;;;;;15.77;100.00;102333.38;7379106;19;20010;-76
2022/07/16 03:41:28;;;;;;;8.15;3.22;;;;;;;15.73;100.00;102347.44;7378424;19;20478;-76
2022/07/16 03:44:03;;;;;;;7.10;2.85;;;;;;;15.72;100.00;102348.31;7374413;19;20010;-76
2022/07/16 03:46:35;;;;;;;6.80;2.78;;;;;;;15.69;100.00;102354.44;7380638;19;20018;-79
2022/07/16 03:49:05;;;;;;;9.00;2.65;;;;;;;15.69;100.00;102361.47;7377799;19;20081;-77
2022/07/16 03:51:35;;;;;;;7.00;2.90;;;;;;;15.69;100.00;102364.13;7379820;19;20026;-77
2022/07/16 03:54:06;;;;;;;5.93;3.28;;;;;;;15.70;100.00;102360.59;7376034;19;20458;-77
2022/07/16 03:56:39;;;;;;;9.05;3.17;;;;;;;15.75;100.00;102373.91;7379190;19;20058;-78
2022/07/16 03:59:10;;;;;;;9.88;3.55;;;;;;;15.83;100.00;102369.63;7377801;19;20018;-77
2022/07/16 04:01:40;;;;;;;9.43;3.63;;;;;;;15.89;100.00;102373.28;7378443;19;20027;-77
2022/07/16 04:04:10;;;;;;;6.97;3.33;;;;;;;15.95;100.00;102368.06;7379079;19;20140;-77
2022/07/16 04:06:40;;;;;;;6.93;3.40;;;;;;;16.01;100.00;102380.50;7381233;19;20030;-76
2022/07/16 04:09:10;;;;;;;7.32;3.00;;;;;;;15.99;100.00;102375.19;7376341;19;20011;-77
2022/07/16 04:11:44;;;;;;;8.63;3.20;;;;;;;15.94;100.00;102382.16;7380747;19;20019;-76
2022/07/16 04:14:14;;;;;;;7.07;2.80;;;;;;;15.94;100.00;102389.22;7374312;19;20046;-77
2022/07/16 04:16:44;;;;;;;6.88;3.17;;;;;;;15.92;100.00;102386.53;7376691;19;20015;-76
2022/07/16 04:19:14;;;;;;;6.80;2.67;;;;;;;15.92;100.00;102386.53;7378589;19;20039;-76
2022/07/16 04:21:43;;;;;;;5.22;2.90;;;;;;;15.95;100.00;102385.69;7379953;19;20027;-77
2022/07/16 04:24:13;;;;;;;6.63;2.63;;;;;;;15.93;100.00;102395.38;7372836;19;20015;-77
2022/07/16 04:26:46;;;;;;;7.03;2.72;;;;;;;15.93;100.00;102401.56;7378126;19;20602;-77
2022/07/16 04:29:15;;;;;;;11.15;2.60;;;;;;;15.91;100.00;102395.34;7378155;19;20023;-77
2022/07/16 04:31:45;;;;;;;5.82;2.55;;;;;;;15.92;100.00;102402.41;7377480;19;20036;-78
2022/07/16 04:34:15;;;;;;;7.28;2.20;;;;;;;15.95;100.00;102402.47;7380090;19;20025;-77
2022/07/16 04:36:48;;;;;;;4.97;2.25;;;;;;;15.98;100.00;102405.16;7375737;19;20074;-76
2022/07/16 04:39:19;;;;;;;5.55;2.40;;;;;;;15.90;100.00;102408.56;7376643;19;20094;-77
2022/07/16 04:41:54;;;;;;;4.68;2.58;;;;;;;15.94;100.00;102418.31;7377668;19;20034;-77
2022/07/16 04:44:24;;;;;;;6.68;2.40;;;;;;;15.95;100.00;102417.47;7372599;19;20014;-78
2022/07/16 04:46:54;;;;;;;6.47;2.53;;;;;;;15.96;100.00;102414.84;7379786;19;20039;-77
2022/07/16 04:49:24;;;;;;;3.95;2.40;;;;;;;16.00;100.00;102416.66;7375884;19;20035;-78
2022/07/16 04:51:55;;;;;;;4.57;2.22;;;;;;;16.10;100.00;102419.47;7378740;19;20349;-78
2022/07/16 04:54:25;;;;;;;7.07;2.20;;;;;;;16.18;100.00;102425.75;7373822;19;20053;-79
2022/07/16 04:56:58;;;;;;;6.85;2.55;;;;;;;16.31;100.00;102419.78;7378809;19;20010;-77
2022/07/16 04:59:27;;;;;;;5.05;2.08;;;;;;;16.37;100.00;102409.28;7380886;19;20019;-77
2022/07/16 05:02:56;;;;;;;8.23;3.25;;;;;;;16.47;100.00;102415.59;7378524;19;20010;-78
2022/07/16 05:04:51;;;;;;;4.75;2.30;;;;;;;16.55;100.00;102425.44;7375711;19;20092;-77
2022/07/16 05:07:21;;;;;;;3.95;2.15;;;;;;;16.70;100.00;102414.16;7377209;19;20011;-77
2022/07/16 05:09:52;;;;;;;4.97;2.40;;;;;;;16.86;100.00;102416.13;7376218;19;20031;-76
2022/07/16 05:12:27;;;;;;;4.57;2.15;;;;;;;16.93;100.00;102420.63;7378114;19;20058;-77
2022/07/16 05:14:56;;;;;;;6.47;2.20;;;;;;;16.97;100.00;102419.81;7377569;19;20006;-77
2022/07/16 05:17:26;;;;;;;5.10;2.22;;;;;;;17.10;100.00;102426.13;7378516;19;20127;-77
2022/07/16 05:19:57;;;;;;;6.68;2.22;;;;;;;17.25;100.00;102430.72;7376770;19;20082;-78
2022/07/16 05:22:30;;;;;;;5.47;2.58;;;;;;;17.38;100.00;102431.75;7379273;19;20021;-77
2022/07/16 05:25:00;;;;;;;4.93;2.40;;;;;;;17.63;100.00;102423.16;7374994;19;20011;-76
2022/07/16 05:27:35;;;;;;;5.78;2.40;;;;;;;17.69;100.00;102431.19;7379097;19;20141;-76
2022/07/16 05:30:11;;;;;;;11.30;4.20;;;;;;;17.80;100.00;102431.28;7377587;19;20338;-77
2022/07/16 05:32:44;;;;;;;6.32;2.42;;;;;;;17.81;100.00;102446.31;7376885;19;20007;-78
2022/07/16 05:35:17;;;;;;;;;;;;;;;17.94;100.00;102445.56;7389257;19;20025;-77
2022/07/16 05:37:49;;;;;;;7.47;2.30;;;;;;;18.04;100.00;102446.53;7387807;19;19928;-78
2022/07/16 05:40:25;;;;;;;5.70;2.20;;;;;;;18.14;99.54;102443.94;7388485;19;20010;-77
2022/07/16 05:43:00;;;;;;;7.90;2.70;;;;;;;18.36;99.57;102450.31;7385877;19;20131;-77
2022/07/16 05:45:31;;;;;;;7.53;2.97;;;;;;;18.29;98.58;102452.03;7383991;19;20010;-77
2022/07/16 05:48:01;;;;;;;4.53;2.38;;;;;;;18.21;96.61;102455.50;7384511;19;20010;-79
2022/07/16 05:50:31;;;;;;;8.77;2.60;;;;;;;18.51;96.23;102454.84;7384464;19;20015;-77
2022/07/16 05:53:02;;;;;;;9.98;2.88;;;;;;;18.59;94.95;102454.00;7381699;19;20010;-78
2022/07/16 05:55:32;;;;;;;4.22;2.30;;;;;;;19.08;93.02;102456.91;7389916;19;20007;-78
2022/07/16 05:58:05;;;;;;;7.53;2.53;;;;;;;19.20;90.22;102456.94;7389565;19;20393;-80
2022/07/16 06:00:36;;;;;;;7.55;2.40;;;;;;;18.86;90.00;102449.72;7393970;19;20006;-78
2022/07/16 06:03:07;;;;;;;6.03;2.47;;;;;;;18.67;91.08;102466.47;7390529;19;20011;-78
2022/07/16 06:05:43;;;;;;;11.23;3.13;;;;;;;18.42;91.76;102466.28;7385689;19;20017;-78
2022/07/16 06:08:16;;;;;;;9.70;2.80;;;;;;;18.59;91.10;102463.75;7391924;19;20307;-80
2022/07/16 06:10:51;;;;;;;6.65;2.53;;;;;;;18.83;89.88;102457.66;7395320;19;20046;-77
2022/07/16 06:13:24;;;;;;;8.90;3.60;;;;;;;18.98;87.54;102464.84;7389367;19;20007;-77
2022/07/16 06:15:54;;;;;;;15.57;3.17;;;;;;;18.62;85.75;102474.41;7395190;19;20784;-78
2022/07/16 06:18:24;;;;;;;7.85;2.97;;;;;;;18.55;84.85;102473.47;7393738;19;20055;-78
2022/07/16 06:20:55;;;;;;;5.57;2.30;;;;;;;18.69;84.85;102465.59;7394946;19;20018;-79
2022/07/16 06:23:27;;;;;;;5.25;2.20;;;;;;;18.41;85.31;102477.78;7394603;19;20122;-78
2022/07/16 06:26:01;;;;;;;5.53;2.17;;;;;;;18.70;85.12;102478.00;7391272;19;20090;-80
2022/07/16 06:28:34;;;;;;;7.22;2.22;;;;;;;18.66;83.44;102477.97;7388326;19;20044;-79
2022/07/16 06:31:08;;;;;;;6.78;2.38;;;;;;;19.09;82.82;102481.72;7386070;19;20112;-80
2022/07/16 06:33:38;;;;;;;6.05;2.38;;;;;;;19.33;81.18;102486.25;7388528;19;20175;-79
2022/07/16 06:36:12;;;;;;;6.32;2.40;;;;;;;19.05;82.38;102491.44;7384853;19;20024;-77
2022/07/16 06:38:47;;;;;;;4.90;2.20;;;;;;;19.10;80.68;102497.69;7384785;19;20019;-77
2022/07/16 06:41:19;;;;;;;5.93;1.90;;;;;;;19.45;79.70;102494.25;7382320;19;20099;-75
2022/07/16 06:43:53;;;;;;;7.90;2.63;;;;;;;19.90;78.25;102507.66;7385818;19;20375;-76
2022/07/16 06:46:26;;;;;;;6.63;2.17;;;;;;;19.93;75.89;102507.66;7379733;19;20015;-77
2022/07/16 06:48:56;;;;;;;4.95;1.90;;;;;;;19.29;75.82;102517.28;7381861;19;20010;-78
2022/07/16 06:51:26;;;;;;;6.22;1.98;;;;;;;19.14;76.65;102512.78;7384740;19;20035;-76
2022/07/16 06:53:56;;;;;;;8.18;2.22;;;;;;;18.91;77.07;102525.94;7381075;19;20335;-79
2022/07/16 06:56:31;;;;;;;5.90;2.00;;;;;;;19.28;74.72;102521.69;7385075;19;20366;-78
2022/07/16 06:59:04;;;;;;;4.70;1.85;;;;;;;19.50;72.47;102521.78;7382718;19;20029;-78
2022/07/16 07:01:36;;;;;;;11.20;2.70;;;;;;;19.68;71.93;102523.63;7383461;19;20011;-79
2022/07/16 07:04:07;;;;;;;7.50;3.10;;;;;;;19.52;72.21;102523.59;7381435;19;20973;-80
2022/07/16 07:06:38;;;;;;;4.80;1.85;;;;;;;19.37;72.08;102518.19;7385607;19;20132;-79
2022/07/16 07:09:10;;;;;;;4.00;1.70;;;;;;;19.73;69.69;102520.09;7384020;19;20023;-79
2022/07/16 07:11:43;;;;;;;4.20;1.60;;;;;;;20.18;69.19;102526.34;7383768;19;20006;-81
2022/07/16 07:14:21;;;;;;;4.93;2.35;;;;;;;20.73;69.01;102534.31;7383428;19;20014;-77
2022/07/16 07:17:16;;;;;;;5.53;1.75;;;;;;;20.47;67.32;102531.69;7381911;19;20014;-76
2022/07/16 07:20:51;;;;;;;4.43;1.52;;;;;;;20.96;67.44;102537.78;7383007;19;20009;-79
2022/07/16 07:23:47;;;;;;;3.50;1.60;;;;;;;20.72;65.24;102537.88;7382862;19;20024;-78
2022/07/16 07:26:17;;;;;;;10.68;2.38;;;;;;;20.47;62.65;102529.91;7378266;19;20018;-77
2022/07/16 07:28:48;;;;;;;3.72;1.77;;;;;;;20.52;62.41;102536.13;7384292;19;20006;-79
2022/07/16 07:31:21;;;;;;;5.50;1.85;;;;;;;19.98;63.96;102542.28;7382166;19;20043;-79
2022/07/16 07:33:52;;;;;;;5.70;2.42;;;;;;;20.54;63.00;102539.69;7382666;19;20010;-78
2022/07/16 07:36:24;;;;;;;3.05;1.60;;;;;;;21.00;60.61;102546.66;7384537;19;20021;-77
2022/07/16 07:38:54;;;;;;;5.88;1.65;;;;;;;20.72;61.07;102551.22;7382720;19;20021;-79
2022/07/16 07:41:29;;;;;;;5.75;1.65;;;;;;;20.89;61.11;102550.25;7383204;19;20010;-76
2022/07/16 07:43:59;;;;;;;4.88;1.70;;;;;;;20.93;61.38;102552.91;7381502;19;20014;-77
2022/07/16 07:46:37;;;;;;;6.35;2.03;;;;;;;21.23;61.43;102551.97;7380271;19;20010;-78
2022/07/16 07:49:08;;;;;;;6.20;1.70;;;;;;;21.53;59.73;102555.41;7382347;19;20021;-78
2022/07/16 07:51:40;;;;;;;4.75;1.70;;;;;;;21.09;57.95;102554.66;7380245;19;20006;-78
2022/07/16 07:54:14;;;;;;;9.38;2.10;;;;;;;21.40;57.60;102560.81;7378466;19;20101;-78
2022/07/16 07:56:44;;;;;;;6.13;2.00;;;;;;;21.75;55.97;102560.63;7382677;19;20014;-79
2022/07/16 07:59:14;;;;;;;5.80;1.55;;;;;;;22.12;54.59;102574.63;7378797;19;20590;-78
2022/07/16 08:01:59;;;;;;;5.07;2.03;;;;;;;22.18;54.14;102561.22;7382495;19;20049;-78
2022/07/16 08:04:30;;;;;;;9.95;1.90;;;;;;;22.33;53.89;102569.13;7380995;19;20219;-77
2022/07/16 08:07:05;;;;;;;4.25;1.50;;;;;;;22.35;54.51;102566.44;7381367;19;20025;-77
2022/07/16 08:09:35;;;;;;;6.50;1.90;;;;;;;23.09;54.08;102573.75;7383345;19;20023;-77
2022/07/16 08:12:06;;;;;;;5.40;1.77;;;;;;;22.83;53.01;102575.84;7380187;19;20339;-80
2022/07/16 08:14:37;;;;;;;3.00;1.45;;;;;;;23.14;53.08;102576.38;7382173;19;20078;-78
2022/07/16 08:17:10;;;;;;;7.00;1.92;;;;;;;23.33;51.87;102574.38;7381010;19;20010;-77
2022/07/16 08:19:44;;;;;;;5.88;2.10;;;;;;;23.63;51.74;102583.84;7380648;19;20358;-78
2022/07/16 08:22:17;;;;;;;6.30;2.10;;;;;;;22.81;51.70;102591.03;7380322;19;20024;-78
2022/07/16 08:27:33;;;;;;;7.18;2.20;;;;;;;22.58;50.80;102598.34;7381078;19;20066;-77
2022/07/16 08:30:04;;;;;;;3.72;1.80;;;;;;;22.68;49.60;102592.00;7379815;19;20023;-78
2022/07/16 08:32:38;;;;;;;3.90;1.58;;;;;;;21.66;52.17;102604.28;7379860;19;20018;-78
2022/07/16 08:35:12;;;;;;;5.88;1.85;;;;;;;22.19;51.52;102603.09;7380496;19;20389;-77
2022/07/16 08:37:45;;;;;;;5.70;2.30;;;;;;;22.52;50.13;102592.13;7380380;19;21280;-77
2022/07/16 08:40:20;;;;;;;3.88;1.88;;;;;;;23.35;49.57;102591.28;7380073;19;20043;-78
2022/07/16 08:42:54;;;;;;;4.88;1.60;;;;;;;23.69;48.59;102598.03;7380355;19;20030;-78
2022/07/16 08:45:25;;;;;;;6.05;2.35;;;;;;;24.07;48.54;102599.25;7380388;19;20049;-80
2022/07/16 08:47:58;;;;;;;6.72;2.47;;;;;;;24.40;47.84;102613.97;7382580;19;20014;-79
2022/07/16 08:50:31;;;;;;;9.50;2.22;;;;;;;22.83;48.23;102614.19;7378350;19;20015;-78
2022/07/16 08:53:04;;;;;;;4.50;1.77;;;;;;;22.47;49.47;102623.38;7374160;19;20035;-76
2022/07/16 08:55:34;;;;;;;3.15;1.60;;;;;;;22.13;50.35;102629.84;7377505;19;20014;-79
2022/07/16 08:58:04;;;;;;;4.63;1.70;;;;;;;23.16;48.85;102634.31;7378834;19;20011;-80
2022/07/16 09:00:34;;;;;;;3.80;1.70;;;;;;;22.50;49.60;102626.03;7380869;19;20517;-76
2022/07/16 09:03:07;;;;;;;4.00;1.70;;;;;;;22.38;50.20;102627.91;7379090;19;20016;-76
2022/07/16 09:05:37;;;;;;;3.85;1.80;;;;;;;22.28;50.25;102632.44;7377207;19;20021;-79
2022/07/16 09:08:08;;;;;;;3.28;1.77;;;;;;;21.60;51.89;102636.34;7377869;19;20716;-78
2022/07/16 09:10:41;;;;;;;4.55;1.83;;;;;;;21.95;51.39;102640.59;7378047;19;20043;-77
2022/07/16 09:13:13;;;;;;;5.25;1.83;;;;;;;21.44;52.24;102642.63;7379837;19;20404;-77
2022/07/16 09:15:47;;;;;;;6.68;1.67;;;;;;;22.40;51.24;102637.69;7380858;19;20002;-76
2022/07/16 09:18:23;;;;;;;4.45;1.60;;;;;;;22.64;50.28;102638.41;7376468;19;20402;-77
2022/07/16 09:20:55;;;;;;;6.72;1.90;;;;;;;22.37;51.25;102645.72;7381832;19;20351;-80
2022/07/16 09:23:28;;;;;;;4.85;1.85;;;;;;;22.95;49.83;102644.38;7378452;19;20494;-79
2022/07/16 09:26:12;;;;;;;2.73;1.50;;;;;;;22.88;49.56;102640.84;7381529;19;20430;-78
2022/07/16 09:28:47;;;;;;;5.28;1.50;;;;;;;22.02;52.29;102659.31;7388258;19;20019;-79
2022/07/16 09:31:38;;;;;;;6.25;2.08;;;;;;;21.29;53.12;102659.59;7385208;19;20013;-80
2022/07/16 09:34:15;;;;;;;7.35;2.28;;;;;;;22.07;52.56;102660.16;7386106;19;20018;-80
2022/07/16 09:36:58;;;;;;;5.63;1.80;;;;;;;21.64;52.25;102667.50;7384746;19;20011;-77
2022/07/16 09:39:37;;;;;;;5.72;1.70;;;;;;;22.26;51.81;102662.72;7385426;19;20010;-79
2022/07/16 09:42:08;;;;;;;6.05;1.60;;;;;;;22.03;52.61;102665.53;7382868;19;20459;-76
2022/07/16 09:44:47;;;;;;;7.80;1.75;;;;;;;22.18;51.92;102660.09;7377930;19;20025;-77
2022/07/16 09:47:19;;;;;;;7.13;1.90;;;;;;;22.71;51.11;102667.75;7377662;19;20009;-77
2022/07/16 09:49:56;;;;;;;4.47;2.13;;;;;;;23.18;50.06;102674.47;7379741;19;20419;-78
2022/07/16 09:52:34;;;;;;;5.95;1.80;;;;;;;22.36;52.37;102675.16;7376114;19;20045;-77
2022/07/16 09:55:04;;;;;;;5.40;2.22;;;;;;;21.87;53.74;102683.38;7378639;19;20010;-79
2022/07/16 09:57:35;;;;;;;8.45;2.03;;;;;;;22.45;51.30;102675.97;7375964;19;20014;-78
2022/07/16 10:00:07;;;;;;;7.35;2.10;;;;;;;22.07;52.66;102686.88;7378857;19;20010;-78
2022/07/16 10:02:37;;;;;;;4.75;1.77;;;;;;;21.62;52.90;102685.28;7377398;19;20019;-79
2022/07/16 10:05:11;;;;;;;4.00;1.83;;;;;;;22.70;50.92;102682.03;7378398;19;20036;-77
2022/07/16 10:07:47;;;;;;;6.68;2.15;;;;;;;22.06;51.08;102697.59;7376074;19;20014;-76
2022/07/16 10:10:19;;;;;;;10.40;2.40;;;;;;;22.30;49.48;102692.09;7377033;19;20007;-78
2022/07/16 10:12:55;;;;;;;5.63;1.70;;;;;;;22.47;49.78;102684.88;7375960;19;20017;-78
2022/07/16 10:15:25;;;;;;;10.52;1.77;;;;;;;23.13;50.13;102682.53;7377179;19;20050;-78
2022/07/16 10:17:55;;;;;;;7.88;2.30;;;;;;;22.37;51.33;102680.47;7377621;19;20007;-79
2022/07/16 10:20:28;;;;;;;4.47;1.92;;;;;;;22.00;50.63;102682.44;7376123;19;20011;-77
2022/07/16 10:23:00;;;;;;;5.05;1.85;;;;;;;22.40;51.27;102683.13;7386795;19;20576;-79
2022/07/16 10:25:35;;;;;;;10.43;1.98;;;;;;;22.17;50.92;102693.97;7384448;19;20022;-78
2022/07/16 10:28:06;;;;;;;4.20;1.92;;;;;;;21.82;51.89;102682.56;7380781;19;20014;-76
2022/07/16 10:30:37;;;;;;;5.15;2.00;;;;;;;22.47;51.80;102695.56;7384741;19;20517;-79
2022/07/16 10:33:16;;;;;;;7.40;2.05;;;;;;;23.05;47.48;102694.22;7383712;19;20413;-78
2022/07/16 10:36:06;;;;;;;5.28;2.03;;;;;;;23.89;47.40;102691.53;7383705;19;20015;-80
2022/07/16 10:38:37;;;;;;;6.40;1.88;;;;;;;23.42;49.11;102710.81;7383921;19;20014;-79
2022/07/16 10:41:13;;;;;;;5.68;1.70;;;;;;;22.55;50.16;102698.19;7382981;19;20018;-78
2022/07/16 10:44:12;;;;;;;5.82;1.80;;;;;;;22.51;51.08;102696.44;7384510;19;20334;-79
2022/07/16 10:46:54;;;;;;;5.00;1.67;;;;;;;22.16;50.28;102713.56;7383156;19;20002;-78
2022/07/16 10:49:26;;;;;;;6.78;2.05;;;;;;;22.87;50.22;102711.34;7383244;19;20010;-77
2022/07/16 10:52:03;;;;;;;4.32;1.70;;;;;;;22.47;50.29;102711.59;7383182;19;20002;-78
2022/07/16 10:54:35;;;;;;;8.60;1.90;;;;;;;23.26;49.17;102715.44;7382805;19;20095;-77
2022/07/16 10:57:06;;;;;;;4.80;1.83;;;;;;;23.14;48.48;102711.06;7383482;19;20912;-77
2022/07/16 10:59:46;;;;;;;5.43;2.15;;;;;;;22.37;47.80;102719.69;7385719;19;20038;-79
2022/07/16 11:02:18;;;;;;;;;;;;;;;22.80;47.93;102721.22;7382746;19;20217;-80
2022/07/16 11:04:57;;;;;;;3.97;1.85;;;;;;;23.66;45.66;102715.03;7387553;19;19937;-79
2022/07/16 11:07:36;;;;;;;4.85;1.83;;;;;;;23.30;47.80;102713.59;7380168;19;20602;-78
2022/07/16 11:10:07;;;;;;;5.65;1.80;;;;;;;23.41;48.39;102715.28;7382473;19;20047;-78
2022/07/16 11:12:38;;;;;;;7.38;2.13;;;;;;;22.92;48.50;102719.31;7380765;19;20015;-78
2022/07/16 11:15:08;;;;;;;5.57;1.90;;;;;;;21.84;51.62;102735.03;7384691;19;20031;-77
2022/07/16 11:17:43;;;;;;;7.68;2.33;;;;;;;22.60;49.70;102723.09;7381860;19;20420;-78
2022/07/16 11:20:16;;;;;;;3.53;2.05;;;;;;;21.79;50.46;102742.22;7382687;19;20044;-78
2022/07/16 11:22:49;;;;;;;;;;;;;;;21.75;51.34;102734.22;7382896;19;20839;-78
2022/07/16 11:25:19;;;;;;;5.05;1.73;;;;;;;21.79;50.79;102735.97;7381294;19;19919;-77
2022/07/16 11:27:49;;;;;;;11.40;2.60;;;;;;;22.13;48.66;102732.28;7380414;19;20088;-77
2022/07/16 11:30:19;;;;;;;7.22;2.30;;;;;;;21.67;49.78;102736.03;7381952;19;20011;-77
2022/07/16 11:32:50;;;;;;;4.57;1.67;;;;;;;21.90;48.84;102733.25;7382304;19;20563;-77
2022/07/16 11:35:21;;;;;;;4.93;1.95;;;;;;;22.10;48.69;102742.09;7382609;19;20053;-77
2022/07/16 11:37:55;;;;;;;5.78;2.08;;;;;;;22.94;48.64;102731.78;7381059;19;20014;-77
2022/07/16 11:40:37;;;;;;;7.90;2.13;;;;;;;23.16;48.71;102741.41;7382491;19;20016;-77
2022/07/16 11:43:08;;;;;;;8.02;1.90;;;;;;;22.97;47.73;102741.56;7381207;19;20025;-77
2022/07/16 11:45:47;;;;;;;8.75;2.20;;;;;;;23.27;47.88;102733.25;7381735;19;20021;-76
2022/07/16 11:48:19;;;;;;;4.97;1.95;;;;;;;22.89;47.88;102743.41;7381240;19;20467;-77
2022/07/16 11:50:50;;;;;;;5.72;1.90;;;;;;;22.20;48.02;102741.16;7383110;19;20014;-76
2022/07/16 11:53:34;;;;;;;6.50;1.85;;;;;;;22.34;48.26;102741.09;7380242;19;20015;-77